Time;durP1;ratioP1;P1;durP2;ratioP2;P2;SDS_P1;SDS_P2;PMS_P1;PMS_P2;Temp;Humidity;BMP_temperature;BMP_pressure;BME280_temperature;BME280_humidity;BME280_pressure;Samples;Min_cycle;Max_cycle;Signal;HPM_P1;HPM_P2
2022/08/26 00:02:19;;;;;;;9.18;3.03;;;15.50;99.90;;;;;;4992137;28;20187;-52
2022/08/26 00:04:45;;;;;;;9.38;3.28;;;15.50;99.90;;;;;;4992941;28;20174;-52
2022/08/26 00:07:11;;;;;;;12.00;2.97;;;15.50;99.90;;;;;;4992714;28;20222;-52
2022/08/26 00:09:37;;;;;;;10.50;2.90;;;15.40;99.90;;;;;;4992668;28;20670;-52
2022/08/26 00:12:04;;;;;;;9.93;3.47;;;15.40;99.90;;;;;;4992505;28;20631;-52
2022/08/26 00:14:30;;;;;;;10.48;2.25;;;15.40;99.90;;;;;;4992597;28;20206;-52
2022/08/26 00:16:56;;;;;;;11.88;3.03;;;15.30;99.90;;;;;;4992685;28;20179;-52
2022/08/26 00:19:21;;;;;;;7.60;2.40;;;15.30;99.90;;;;;;4992461;28;20258;-52
2022/08/26 00:21:48;;;;;;;10.43;3.25;;;15.30;99.90;;;;;;4992406;28;20218;-52
2022/08/26 00:24:14;;;;;;;13.82;3.67;;;15.30;99.90;;;;;;4992263;28;20639;-52
2022/08/26 00:26:40;;;;;;;14.98;3.85;;;15.20;99.90;;;;;;4992283;28;20199;-53
2022/08/26 00:29:06;;;;;;;10.00;2.30;;;15.20;99.90;;;;;;4992128;28;20231;-51
2022/08/26 00:31:31;;;;;;;9.45;2.47;;;15.10;99.90;;;;;;4992410;28;20187;-52
2022/08/26 00:33:58;;;;;;;6.25;1.83;;;15.10;99.90;;;;;;4992282;28;20225;-52
2022/08/26 00:36:23;;;;;;;10.55;3.28;;;15.10;99.90;;;;;;4992476;28;20192;-52
2022/08/26 00:38:49;;;;;;;8.98;3.03;;;15.10;99.90;;;;;;4992267;28;20203;-52
2022/08/26 00:41:18;;;;;;;11.90;3.03;;;15.00;99.90;;;;;;4991980;28;20660;-52
2022/08/26 00:43:43;;;;;;;13.90;3.70;;;15.00;99.90;;;;;;4992137;28;20171;-51
2022/08/26 00:46:13;;;;;;;10.05;3.03;;;14.90;99.90;;;;;;4992316;28;20167;-52
2022/08/26 00:48:42;;;;;;;7.93;2.83;;;14.90;99.90;;;;;;4991941;28;20748;-52
2022/08/26 00:51:20;;;;;;;11.15;2.92;;;14.80;99.90;;;;;;4992006;28;20620;-51
2022/08/26 00:53:59;;;;;;;13.07;2.65;;;14.80;99.90;;;;;;4991891;28;20171;-52
2022/08/26 00:56:28;;;;;;;13.63;2.10;;;14.80;99.90;;;;;;4991920;28;20175;-52
2022/08/26 00:58:57;;;;;;;9.18;2.35;;;14.80;99.90;;;;;;4992072;28;20179;-52
2022/08/26 01:01:25;;;;;;;9.35;1.98;;;14.80;99.90;;;;;;4991797;28;20168;-52
2022/08/26 01:03:52;;;;;;;8.90;1.83;;;14.80;99.90;;;;;;4991759;28;20266;-52
2022/08/26 01:06:18;;;;;;;8.38;1.80;;;14.80;99.90;;;;;;4991744;28;20175;-53
2022/08/26 01:08:44;;;;;;;8.32;1.80;;;14.80;99.90;;;;;;4991731;28;20218;-53
2022/08/26 01:11:11;;;;;;;7.17;2.00;;;14.80;99.90;;;;;;4991801;28;20709;-52
2022/08/26 01:13:37;;;;;;;9.40;2.57;;;14.80;99.90;;;;;;4991627;28;20167;-52
2022/08/26 01:16:05;;;;;;;10.73;1.95;;;14.80;99.90;;;;;;4991673;28;20215;-52
2022/08/26 01:18:31;;;;;;;8.98;2.10;;;14.80;99.90;;;;;;4991661;28;20182;-52
2022/08/26 01:21:21;;;;;;;10.13;1.90;;;14.40;99.90;;;;;;4991582;28;20170;-52
2022/08/26 01:23:49;;;;;;;7.50;1.70;;;14.90;99.90;;;;;;4991629;28;20523;-52
2022/08/26 01:26:20;;;;;;;9.77;1.80;;;14.90;99.90;;;;;;4991505;28;20198;-52
2022/08/26 01:28:50;;;;;;;10.95;1.90;;;14.90;99.90;;;;;;4991215;28;20296;-52
2022/08/26 01:31:19;;;;;;;9.27;1.80;;;14.90;99.90;;;;;;4991361;28;20275;-52
2022/08/26 01:33:59;;;;;;;11.57;1.83;;;14.70;99.90;;;;;;4991446;28;20179;-52
2022/08/26 01:36:24;;;;;;;11.23;1.70;;;14.70;99.90;;;;;;4991402;28;20663;-52
2022/08/26 01:38:51;;;;;;;9.13;2.17;;;15.00;99.90;;;;;;4990203;28;20199;-53
2022/08/26 01:41:18;;;;;;;8.27;2.10;;;14.60;99.90;;;;;;4991559;28;20252;-53
2022/08/26 01:43:46;;;;;;;10.32;2.28;;;14.60;99.90;;;;;;4991404;28;20642;-52
2022/08/26 01:46:14;;;;;;;10.30;1.80;;;14.60;99.90;;;;;;4991762;28;20175;-53
2022/08/26 01:48:42;;;;;;;16.55;2.65;;;14.60;99.90;;;;;;4991386;28;20198;-52
2022/08/26 01:51:09;;;;;;;7.07;1.73;;;14.60;99.90;;;;;;4990103;28;20541;-53
2022/08/26 01:53:36;;;;;;;9.77;1.90;;;14.50;99.90;;;;;;4991350;28;20174;-52
2022/08/26 01:56:03;;;;;;;10.27;1.93;;;14.50;99.90;;;;;;4991336;28;20195;-52
2022/08/26 01:58:35;;;;;;;8.70;2.00;;;14.50;99.90;;;;;;4991270;28;20179;-52
2022/08/26 02:01:01;;;;;;;11.10;2.60;;;14.50;99.90;;;;;;4991318;28;20167;-52
2022/08/26 02:03:28;;;;;;;8.63;2.13;;;14.50;99.90;;;;;;4991158;28;20186;-52
2022/08/26 02:05:58;;;;;;;11.40;2.00;;;14.40;99.90;;;;;;4991150;28;20170;-52
2022/08/26 02:08:40;;;;;;;12.57;2.63;;;14.40;99.90;;;;;;4991235;28;20179;-53
2022/08/26 02:11:06;;;;;;;8.03;2.07;;;14.40;99.90;;;;;;4991303;28;20187;-52
2022/08/26 02:13:36;;;;;;;9.83;2.07;;;14.40;99.90;;;;;;4991552;28;20178;-53
2022/08/26 02:16:02;;;;;;;8.80;1.77;;;14.30;99.90;;;;;;4991339;28;20175;-53
2022/08/26 02:18:31;;;;;;;12.88;2.13;;;14.30;99.90;;;;;;4991307;28;20172;-52
2022/08/26 02:20:57;;;;;;;7.43;2.05;;;14.30;99.90;;;;;;4991167;28;20172;-52
2022/08/26 02:23:23;;;;;;;9.33;1.83;;;14.30;99.90;;;;;;4991053;28;20179;-52
2022/08/26 02:25:59;;;;;;;9.53;1.83;;;14.30;99.90;;;;;;4992780;28;20230;-53
2022/08/26 02:28:27;;;;;;;8.87;1.87;;;14.30;99.90;;;;;;4994555;28;20226;-52
2022/08/26 02:30:53;;;;;;;9.70;2.27;;;14.20;99.90;;;;;;4994669;28;20179;-52
2022/08/26 02:33:18;;;;;;;10.60;2.40;;;14.20;99.90;;;;;;4994714;28;20278;-52
2022/08/26 02:35:45;;;;;;;11.57;2.00;;;14.20;99.90;;;;;;4994621;28;20190;-52
2022/08/26 02:38:11;;;;;;;9.93;1.80;;;14.20;99.90;;;;;;4994561;28;20203;-52
2022/08/26 02:40:39;;;;;;;6.57;1.63;;;14.20;99.90;;;;;;4994602;28;20541;-52
2022/08/26 02:43:06;;;;;;;12.55;2.05;;;14.10;99.90;;;;;;4994543;28;20175;-53
2022/08/26 02:45:32;;;;;;;7.35;1.60;;;14.10;99.90;;;;;;4994440;28;20182;-52
2022/08/26 02:47:59;;;;;;;5.97;1.50;;;14.10;99.90;;;;;;4994545;28;20179;-52
2022/08/26 02:50:26;;;;;;;8.23;1.70;;;14.10;99.90;;;;;;4994295;28;20214;-52
2022/08/26 02:52:52;;;;;;;11.10;1.40;;;14.10;99.90;;;;;;4994257;28;20195;-52
2022/08/26 02:55:18;;;;;;;7.23;1.57;;;14.10;99.90;;;;;;4994328;28;20178;-52
2022/08/26 02:57:43;;;;;;;12.97;1.77;;;14.10;99.90;;;;;;4994357;28;20175;-53
2022/08/26 03:00:13;;;;;;;6.87;1.70;;;14.10;99.90;;;;;;4994262;28;20577;-52
2022/08/26 03:02:39;;;;;;;7.27;1.90;;;14.00;99.90;;;;;;4994184;28;20642;-53
2022/08/26 03:05:05;;;;;;;9.70;1.97;;;14.00;99.90;;;;;;4994087;28;20174;-52
2022/08/26 03:07:31;;;;;;;10.53;1.80;;;14.00;99.90;;;;;;4994046;28;20183;-52
2022/08/26 03:09:57;;;;;;;11.40;2.13;;;13.90;99.90;;;;;;4994040;28;20207;-52
2022/08/26 03:12:23;;;;;;;11.37;2.67;;;13.80;99.90;;;;;;4993938;28;20171;-52
2022/08/26 03:14:48;;;;;;;9.40;1.90;;;13.80;99.90;;;;;;4994093;28;20194;-52
2022/08/26 03:17:14;;;;;;;14.03;2.53;;;13.80;99.90;;;;;;4993923;28;20532;-52
2022/08/26 03:19:40;;;;;;;9.93;2.33;;;13.80;99.90;;;;;;4993873;28;20363;-52
2022/08/26 03:22:06;;;;;;;8.10;2.00;;;13.80;99.90;;;;;;4993883;28;20247;-52
2022/08/26 03:24:31;;;;;;;6.13;1.80;;;13.80;99.90;;;;;;4993990;28;20182;-52
2022/08/26 03:26:57;;;;;;;11.27;1.93;;;13.80;99.90;;;;;;4993816;28;20167;-52
2022/08/26 03:32:08;;;;;;;10.13;2.23;;;13.80;99.90;;;;;;4993906;28;20190;-52
2022/08/26 03:34:34;;;;;;;12.37;2.10;;;13.80;99.90;;;;;;4993835;28;20175;-52
2022/08/26 03:36:59;;;;;;;11.17;2.40;;;13.70;99.90;;;;;;4992486;28;20225;-52
2022/08/26 03:39:26;;;;;;;10.77;2.10;;;13.70;99.90;;;;;;4993644;28;20179;-52
2022/08/26 03:41:51;;;;;;;7.97;2.40;;;13.60;99.90;;;;;;4993508;28;20179;-52
2022/08/26 03:44:17;;;;;;;11.50;2.53;;;13.60;99.90;;;;;;4993925;28;20975;-52
2022/08/26 03:46:43;;;;;;;9.37;2.93;;;13.70;99.90;;;;;;4993321;28;20183;-52
2022/08/26 03:49:09;;;;;;;7.53;2.40;;;13.70;99.90;;;;;;4993293;28;20378;-52
2022/08/26 03:51:37;;;;;;;9.93;2.50;;;13.70;99.90;;;;;;4993186;28;20258;-52
2022/08/26 03:54:03;;;;;;;10.20;2.80;;;13.70;99.90;;;;;;4993107;28;20199;-52
2022/08/26 03:56:32;;;;;;;12.37;2.50;;;13.70;99.90;;;;;;4993154;28;20171;-52
2022/08/26 03:59:01;;;;;;;9.50;2.20;;;13.70;99.90;;;;;;4993084;28;20190;-52
2022/08/26 04:01:27;;;;;;;7.67;2.23;;;13.60;99.90;;;;;;4993031;28;20195;-52
2022/08/26 04:03:57;;;;;;;6.70;2.10;;;13.60;99.90;;;;;;4993034;28;20221;-52
2022/08/26 04:06:42;;;;;;;6.53;2.53;;;13.60;99.90;;;;;;4991858;28;20171;-52
2022/08/26 04:09:13;;;;;;;11.53;2.10;;;13.60;99.90;;;;;;4992864;28;20301;-52
2022/08/26 04:11:42;;;;;;;5.47;2.30;;;13.60;99.90;;;;;;4992790;28;20167;-52
2022/08/26 04:14:14;;;;;;;10.77;2.37;;;13.50;99.90;;;;;;4992793;28;20182;-52
2022/08/26 04:16:42;;;;;;;7.93;2.73;;;13.50;99.90;;;;;;4992743;28;20578;-52
2022/08/26 04:19:09;;;;;;;11.33;2.60;;;13.50;99.90;;;;;;4992697;28;20218;-52
2022/08/26 04:21:37;;;;;;;14.63;2.80;;;13.50;99.90;;;;;;4992708;28;20536;-52
2022/08/26 04:24:04;;;;;;;14.33;4.13;;;13.50;99.90;;;;;;4992632;28;20258;-52
2022/08/26 04:26:36;;;;;;;13.27;3.80;;;13.50;99.90;;;;;;4992579;28;20255;-52
2022/08/26 04:29:04;;;;;;;14.63;4.43;;;13.40;99.90;;;;;;4992329;28;20690;-52
2022/08/26 04:31:35;;;;;;;11.67;4.17;;;13.40;99.90;;;;;;4992601;28;20217;-52
2022/08/26 04:34:01;;;;;;;10.67;4.10;;;13.40;99.90;;;;;;4992477;28;20171;-52
2022/08/26 04:36:27;;;;;;;9.50;3.97;;;13.30;99.90;;;;;;4992350;28;20164;-52
2022/08/26 04:38:53;;;;;;;10.10;4.27;;;13.30;99.90;;;;;;4992254;28;20175;-52
2022/08/26 04:41:19;;;;;;;12.30;4.13;;;13.30;99.90;;;;;;4992185;28;20183;-52
2022/08/26 04:43:46;;;;;;;10.37;3.83;;;13.20;99.90;;;;;;4992363;28;20167;-52
2022/08/26 04:46:14;;;;;;;11.37;3.50;;;13.20;99.90;;;;;;4992231;28;20298;-52
2022/08/26 04:48:40;;;;;;;12.87;3.50;;;13.20;99.90;;;;;;4991857;28;20233;-52
2022/08/26 04:51:06;;;;;;;11.40;3.40;;;13.20;99.90;;;;;;4992183;28;20650;-52
2022/08/26 04:53:32;;;;;;;9.73;3.00;;;13.10;99.90;;;;;;4992085;28;20175;-52
2022/08/26 04:55:58;;;;;;;9.40;3.20;;;13.10;99.90;;;;;;4992240;28;20668;-53
2022/08/26 04:58:24;;;;;;;9.40;2.57;;;13.10;99.90;;;;;;4992091;28;20259;-53
2022/08/26 05:00:52;;;;;;;12.00;3.30;;;13.10;99.90;;;;;;4992023;28;20228;-53
2022/08/26 05:03:18;;;;;;;9.30;2.30;;;13.10;99.90;;;;;;4991995;28;20187;-52
2022/08/26 05:05:46;;;;;;;11.00;2.30;;;13.10;99.90;;;;;;4991907;28;20171;-52
2022/08/26 05:08:13;;;;;;;10.23;2.70;;;13.10;99.90;;;;;;4991779;28;20178;-53
2022/08/26 05:10:49;;;;;;;8.20;2.40;;;13.00;99.90;;;;;;4992018;28;20207;-52
2022/08/26 05:13:19;;;;;;;13.43;2.87;;;13.00;99.90;;;;;;4991879;28;20642;-52
2022/08/26 05:15:46;;;;;;;5.93;2.57;;;13.00;99.90;;;;;;4991905;28;20641;-53
2022/08/26 05:18:12;;;;;;;11.57;2.90;;;13.00;99.90;;;;;;4991898;28;20160;-52
2022/08/26 05:20:43;;;;;;;12.20;3.03;;;13.00;99.90;;;;;;4991816;28;20249;-52
2022/08/26 05:23:09;;;;;;;10.30;3.07;;;13.00;99.90;;;;;;4991883;28;20179;-52
2022/08/26 05:25:43;;;;;;;11.47;2.80;;;13.00;99.90;;;;;;4991771;28;20172;-52
2022/08/26 05:28:10;;;;;;;11.00;2.40;;;13.00;99.90;;;;;;4991561;28;20214;-52
2022/08/26 05:30:37;;;;;;;8.90;2.33;;;13.00;99.90;;;;;;4991586;28;20207;-52
2022/08/26 05:33:02;;;;;;;10.57;2.40;;;13.00;99.90;;;;;;4991608;28;20183;-52
2022/08/26 05:35:30;;;;;;;10.87;2.60;;;13.00;99.90;;;;;;4990339;28;20557;-52
2022/08/26 05:38:01;;;;;;;10.20;1.93;;;13.00;99.90;;;;;;4991776;28;20198;-53
2022/08/26 05:40:27;;;;;;;11.13;2.40;;;13.00;99.90;;;;;;4991607;28;20167;-52
2022/08/26 05:42:53;;;;;;;11.37;2.17;;;13.00;99.90;;;;;;4991516;28;20229;-52
2022/08/26 05:45:22;;;;;;;6.57;2.00;;;13.00;99.90;;;;;;4991533;28;20266;-52
2022/08/26 05:47:49;;;;;;;12.97;2.00;;;13.00;99.90;;;;;;4991438;28;20175;-52
2022/08/26 05:50:14;;;;;;;11.23;1.90;;;13.00;99.90;;;;;;4991431;28;20217;-52
2022/08/26 05:52:41;;;;;;;12.80;2.40;;;13.00;99.90;;;;;;4991501;28;20180;-52
2022/08/26 05:55:07;;;;;;;8.53;2.33;;;13.10;99.90;;;;;;4991499;28;20167;-52
2022/08/26 05:57:32;;;;;;;7.77;1.90;;;13.20;99.90;;;;;;4991328;28;20237;-52
2022/08/26 05:59:59;;;;;;;12.40;2.70;;;13.20;99.90;;;;;;4991635;28;20179;-52
2022/08/26 06:02:24;;;;;;;9.37;2.20;;;13.30;99.90;;;;;;4995420;28;20210;-53
2022/08/26 06:04:50;;;;;;;9.70;2.63;;;13.30;99.90;;;;;;4995131;28;20650;-52
2022/08/26 06:07:16;;;;;;;7.87;2.30;;;13.40;99.90;;;;;;4995249;28;20175;-52
2022/08/26 06:09:42;;;;;;;6.47;2.03;;;13.50;99.90;;;;;;4995079;28;20219;-52
2022/08/26 06:12:07;;;;;;;15.30;2.73;;;13.50;99.90;;;;;;4995110;28;20209;-51
2022/08/26 06:14:34;;;;;;;11.87;2.10;;;13.60;99.90;;;;;;4994912;28;20203;-52
2022/08/26 06:17:00;;;;;;;7.57;2.00;;;13.60;99.90;;;;;;4994860;28;20221;-52
2022/08/26 06:19:26;;;;;;;10.63;2.60;;;13.70;99.90;;;;;;4994936;28;20558;-52
2022/08/26 06:21:53;;;;;;;5.63;2.40;;;13.70;99.90;;;;;;4994945;28;20270;-53
2022/08/26 06:27:08;;;;;;;12.00;2.70;;;13.80;99.90;;;;;;4994780;28;20685;-52
2022/08/26 06:29:35;;;;;;;12.63;2.93;;;13.80;99.90;;;;;;4994526;28;20306;-52
2022/08/26 06:32:02;;;;;;;9.33;2.80;;;13.90;99.90;;;;;;4994778;28;20250;-53
2022/08/26 06:34:28;;;;;;;14.43;2.80;;;13.90;99.90;;;;;;4994581;28;20175;-52
2022/08/26 06:36:56;;;;;;;14.30;2.40;;;13.90;99.90;;;;;;4994525;28;20171;-52
2022/08/26 06:39:22;;;;;;;13.43;2.73;;;14.00;99.90;;;;;;4994583;28;20278;-52
2022/08/26 06:41:48;;;;;;;6.17;2.50;;;14.00;99.90;;;;;;4994482;28;20592;-52
2022/08/26 06:44:14;;;;;;;12.20;2.77;;;14.10;99.90;;;;;;4994358;28;20234;-52
2022/08/26 06:46:41;;;;;;;14.10;2.97;;;14.20;99.90;;;;;;4994515;28;20171;-52
2022/08/26 06:49:07;;;;;;;12.57;2.63;;;14.20;99.90;;;;;;4994324;28;20191;-52
2022/08/26 06:51:35;;;;;;;14.50;3.07;;;14.30;99.90;;;;;;4994332;28;20205;-52
2022/08/26 06:54:03;;;;;;;12.40;2.83;;;14.40;99.90;;;;;;4994345;28;20186;-52
2022/08/26 06:56:35;;;;;;;11.87;2.60;;;14.50;99.90;;;;;;4976752;28;20264;-52
2022/08/26 06:59:02;;;;;;;8.07;2.80;;;14.50;99.90;;;;;;4994216;28;20187;-53
2022/08/26 07:01:32;;;;;;;7.77;2.53;;;14.70;99.90;;;;;;4994626;28;20183;-52
2022/08/26 07:04:00;;;;;;;6.80;2.70;;;14.90;99.90;;;;;;4994249;28;20180;-52
2022/08/26 07:06:27;;;;;;;13.23;3.28;;;15.00;99.90;;;;;;4994145;28;20203;-52
2022/08/26 07:09:03;;;;;;;8.63;2.58;;;15.20;99.90;;;;;;4993756;28;20214;-52
2022/08/26 07:11:29;;;;;;;8.10;2.50;;;15.50;99.90;;;;;;4993918;28;20186;-52
2022/08/26 07:13:54;;;;;;;8.88;2.80;;;15.70;99.90;;;;;;4993818;28;20582;-52
2022/08/26 07:16:20;;;;;;;10.23;2.53;;;15.90;99.90;;;;;;4993949;28;20213;-52
2022/08/26 07:18:47;;;;;;;12.40;2.83;;;16.00;99.90;;;;;;4993844;28;20743;-52
2022/08/26 07:21:16;;;;;;;12.82;2.50;;;16.20;99.90;;;;;;4993662;28;20163;-53
2022/08/26 07:23:41;;;;;;;16.17;3.10;;;16.50;99.90;;;;;;4993798;28;20226;-52
2022/08/26 07:26:10;;;;;;;20.05;3.05;;;16.70;99.90;;;;;;4993720;28;20171;-52
2022/08/26 07:28:37;;;;;;;13.05;2.55;;;16.90;99.90;;;;;;4993433;28;20234;-53
2022/08/26 07:31:10;;;;;;;8.85;2.50;;;17.20;99.90;;;;;;4993656;28;20172;-51
2022/08/26 07:33:37;;;;;;;7.20;2.38;;;17.30;99.90;;;;;;4993536;28;20226;-53
2022/08/26 07:36:04;;;;;;;10.85;2.28;;;17.50;99.90;;;;;;4993439;28;20179;-51
2022/08/26 07:38:31;;;;;;;11.65;1.95;;;17.70;99.90;;;;;;4993393;28;20171;-51
2022/08/26 07:40:57;;;;;;;8.70;1.75;;;17.70;99.90;;;;;;4993370;28;20645;-51
2022/08/26 07:43:23;;;;;;;10.48;2.47;;;17.90;99.90;;;;;;4993394;28;20168;-51
2022/08/26 07:45:48;;;;;;;8.52;2.35;;;18.00;99.90;;;;;;4993292;28;20218;-51
2022/08/26 07:48:15;;;;;;;12.85;2.28;;;18.00;99.90;;;;;;4993265;28;20179;-51
2022/08/26 07:50:41;;;;;;;7.35;2.28;;;18.00;99.90;;;;;;4993220;28;20280;-52
2022/08/26 07:53:07;;;;;;;9.98;2.35;;;18.20;99.90;;;;;;4993236;28;20267;-51
2022/08/26 07:55:33;;;;;;;12.23;2.30;;;18.30;99.90;;;;;;4993024;28;20273;-51
2022/08/26 07:57:59;;;;;;;12.15;2.25;;;18.40;99.90;;;;;;4992822;28;20669;-51
2022/08/26 08:00:25;;;;;;;9.52;1.95;;;18.50;99.90;;;;;;4992948;28;20579;-51
2022/08/26 08:02:51;;;;;;;5.75;1.85;;;18.50;99.90;;;;;;4992894;28;20262;-50
2022/08/26 08:05:19;;;;;;;8.75;1.92;;;18.50;99.90;;;;;;4992868;28;20218;-51
2022/08/26 08:07:46;;;;;;;6.28;1.55;;;18.60;99.90;;;;;;4992715;28;20316;-52
2022/08/26 08:10:15;;;;;;;9.98;1.70;;;18.70;99.90;;;;;;4992731;28;20669;-51
2022/08/26 08:12:42;;;;;;;7.10;1.50;;;19.10;99.90;;;;;;4992742;28;20183;-50
2022/08/26 08:15:08;;;;;;;7.32;1.90;;;19.00;99.90;;;;;;4992744;28;20733;-50
2022/08/26 08:17:34;;;;;;;5.43;1.27;;;19.20;99.90;;;;;;4992618;28;20183;-50
2022/08/26 08:20:01;;;;;;;9.07;1.67;;;19.40;99.90;;;;;;4992594;28;20533;-51
2022/08/26 08:22:27;;;;;;;5.57;1.45;;;19.40;99.90;;;;;;4992239;28;20646;-51
2022/08/26 08:24:53;;;;;;;6.32;1.73;;;19.50;99.90;;;;;;4992129;28;20182;-51
2022/08/26 08:27:19;;;;;;;7.78;1.77;;;19.50;99.90;;;;;;4992405;28;20175;-50
2022/08/26 08:29:46;;;;;;;5.38;1.23;;;19.90;99.90;;;;;;4992151;28;20230;-51
2022/08/26 08:32:12;;;;;;;11.00;1.90;;;21.00;99.90;;;;;;4992312;28;20171;-51
2022/08/26 08:34:38;;;;;;;8.38;1.83;;;22.60;99.90;;;;;;4992447;28;20187;-52
2022/08/26 08:37:05;;;;;;;9.70;1.48;;;23.90;99.90;;;;;;4992395;28;20179;-54
2022/08/26 08:39:31;;;;;;;12.93;2.03;;;25.40;99.90;;;;;;4992486;28;20241;-54
2022/08/26 08:42:45;;;;;;;6.32;1.58;;;26.30;99.90;;;;;;4992400;28;20179;-54
2022/08/26 08:45:18;;;;;;;8.68;1.98;;;26.70;99.90;;;;;;4922535;28;20326;-54
2022/08/26 08:48:24;;;;;;;12.88;1.70;;;27.10;99.90;;;;;;4992193;28;20252;-54
2022/08/26 08:50:54;;;;;;;7.30;1.80;;;28.10;99.90;;;;;;4992172;28;20190;-55
2022/08/26 08:53:33;;;;;;;7.50;2.10;;;28.50;99.90;;;;;;4992107;28;20451;-55
2022/08/26 08:56:34;;;;;;;10.50;1.77;;;28.70;99.90;;;;;;4992316;28;20650;-55
2022/08/26 08:59:08;;;;;;;9.43;1.67;;;29.20;99.90;;;;;;4991968;28;20214;-53
2022/08/26 09:01:58;;;;;;;9.70;2.10;;;29.60;99.90;;;;;;4991816;28;20174;-53
2022/08/26 09:04:45;;;;;;;9.93;2.15;;;28.80;99.90;;;;;;4992137;28;20198;-53
2022/08/26 09:07:37;;;;;;;8.77;1.88;;;28.10;99.90;;;;;;4991905;28;20205;-52
2022/08/26 09:10:21;;;;;;;9.07;2.30;;;26.80;99.90;;;;;;4983594;28;20623;-51
2022/08/26 09:12:49;;;;;;;9.95;2.72;;;25.80;99.90;;;;;;4991646;28;20642;-52
2022/08/26 09:15:23;;;;;;;16.02;2.10;;;24.90;99.90;;;;;;4991693;28;20181;-52
2022/08/26 09:18:26;;;;;;;13.23;2.10;;;24.10;99.90;;;;;;4991676;28;20170;-52
2022/08/26 09:20:59;;;;;;;14.98;2.00;;;24.10;99.90;;;;;;4991676;28;20178;-52
2022/08/26 09:23:25;;;;;;;12.98;2.08;;;23.80;99.90;;;;;;4991582;28;20170;-52
2022/08/26 09:25:58;;;;;;;10.82;1.92;;;23.60;99.90;;;;;;4991598;28;20174;-52
2022/08/26 09:28:27;;;;;;;17.15;2.40;;;23.50;99.90;;;;;;4991378;28;20218;-52
2022/08/26 09:31:02;;;;;;;12.68;2.15;;;23.40;99.90;;;;;;4991653;28;20194;-52
2022/08/26 09:33:31;;;;;;;14.45;2.00;;;23.30;99.90;;;;;;4991673;28;20182;-52
2022/08/26 09:36:12;;;;;;;9.68;1.90;;;23.40;99.90;;;;;;4993580;28;20221;-52
2022/08/26 09:38:38;;;;;;;13.48;1.95;;;23.40;99.90;;;;;;4995375;28;20707;-51
2022/08/26 09:41:24;;;;;;;8.05;1.65;;;23.90;99.90;;;;;;4995458;28;20167;-53
2022/08/26 09:44:22;;;;;;;12.13;2.33;;;24.40;99.90;;;;;;4995603;28;20167;-53
2022/08/26 09:46:58;;;;;;;12.18;2.10;;;24.70;99.90;;;;;;4952249;28;20209;-52
2022/08/26 09:49:23;;;;;;;8.25;1.50;;;24.70;99.90;;;;;;4995307;28;20225;-52
2022/08/26 09:52:22;;;;;;;7.43;1.88;;;23.80;99.90;;;;;;4995349;28;20179;-52
2022/08/26 09:55:11;;;;;;;12.50;2.33;;;23.40;99.90;;;;;;4995042;28;20241;-52
2022/08/26 09:57:57;;;;;;;8.65;2.10;;;23.10;99.90;;;;;;4995114;28;20241;-52
2022/08/26 10:00:22;;;;;;;7.68;1.70;;;23.00;99.90;;;;;;4994791;28;20183;-52
2022/08/26 10:02:48;;;;;;;8.10;1.80;;;23.20;99.90;;;;;;4995326;28;20647;-52
2022/08/26 10:05:25;;;;;;;8.50;1.67;;;23.00;99.90;;;;;;4995064;28;20214;-52
2022/08/26 10:07:51;;;;;;;8.13;1.45;;;22.90;99.90;;;;;;4995029;28;20274;-52
2022/08/26 10:10:25;;;;;;;10.52;1.70;;;22.90;99.90;;;;;;4994817;28;20214;-52
2022/08/26 10:13:22;;;;;;;8.50;1.90;;;22.80;99.90;;;;;;4995071;28;20579;-52
2022/08/26 10:16:02;;;;;;;12.32;2.10;;;22.60;99.90;;;;;;4964989;28;20191;-52
2022/08/26 10:18:32;;;;;;;6.28;1.58;;;22.90;99.90;;;;;;4994863;28;20634;-52
2022/08/26 10:21:03;;;;;;;9.93;2.15;;;23.60;99.90;;;;;;4994894;28;20229;-52
2022/08/26 10:23:32;;;;;;;9.80;1.65;;;23.60;99.90;;;;;;4994846;28;20658;-52
2022/08/26 10:26:31;;;;;;;9.13;1.67;;;24.20;99.90;;;;;;4994864;28;20184;-53
2022/08/26 10:29:05;;;;;;;6.80;1.60;;;24.40;99.90;;;;;;4994438;28;20287;-52
2022/08/26 10:31:39;;;;;;;10.43;1.60;;;24.80;99.90;;;;;;4994687;28;20186;-53
2022/08/26 10:34:05;;;;;;;12.52;1.83;;;25.40;99.90;;;;;;4994726;28;20175;-52
2022/08/26 10:36:48;;;;;;;4.60;1.23;;;25.80;99.90;;;;;;4994543;28;20175;-53
2022/08/26 10:39:19;;;;;;;5.18;1.20;;;26.00;99.90;;;;;;4994325;28;20182;-52
2022/08/26 10:41:50;;;;;;;4.32;1.33;;;26.10;99.90;;;;;;4994720;28;20175;-52
2022/08/26 10:44:17;;;;;;;4.13;1.20;;;25.80;99.90;;;;;;4994312;28;20210;-53
2022/08/26 10:46:55;;;;;;;5.68;1.27;;;26.00;99.90;;;;;;4993849;28;20311;-52
2022/08/26 10:49:21;;;;;;;7.28;1.30;;;25.90;99.90;;;;;;4994093;28;20210;-52
2022/08/26 10:51:57;;;;;;;5.70;1.30;;;25.70;99.90;;;;;;4993613;28;20172;-52
2022/08/26 10:54:45;;;;;;;8.75;1.50;;;25.80;99.90;;;;;;4994234;28;20163;-52
2022/08/26 10:57:22;;;;;;;5.18;1.70;;;26.10;99.90;;;;;;4994076;28;20175;-53
2022/08/26 10:59:55;;;;;;;5.50;1.52;;;27.10;99.90;;;;;;4994004;28;20175;-53
2022/08/26 11:02:32;;;;;;;5.88;1.52;;;27.90;99.90;;;;;;4994008;28;20195;-53
2022/08/26 11:05:08;;;;;;;9.30;1.83;;;28.10;99.90;;;;;;4994037;28;20214;-53
2022/08/26 11:07:44;;;;;;;11.25;1.85;;;27.50;99.90;;;;;;4994073;28;20174;-53
2022/08/26 11:10:42;;;;;;;7.28;1.70;;;27.10;99.90;;;;;;4993921;28;20221;-53
2022/08/26 11:13:08;;;;;;;10.15;1.95;;;26.30;99.90;;;;;;4993866;28;20171;-53
2022/08/26 11:15:37;;;;;;;5.15;1.35;;;26.10;99.90;;;;;;4993921;28;20175;-52
2022/08/26 11:18:11;;;;;;;6.55;1.45;;;25.70;99.90;;;;;;4993746;28;20182;-53
2022/08/26 11:20:44;;;;;;;7.55;1.55;;;25.10;99.90;;;;;;4993709;28;20262;-53
2022/08/26 11:23:21;;;;;;;14.35;1.70;;;24.70;99.90;;;;;;4994145;28;20204;-53
2022/08/26 11:26:09;;;;;;;11.70;1.60;;;24.80;99.90;;;;;;4993660;28;20695;-53
2022/08/26 11:28:36;;;;;;;8.73;1.45;;;24.50;99.90;;;;;;4993500;28;20230;-53
2022/08/26 11:31:07;;;;;;;7.22;1.45;;;23.90;99.90;;;;;;4993558;28;20206;-53
2022/08/26 11:33:50;;;;;;;21.35;1.98;;;23.60;99.90;;;;;;4993526;28;20179;-52
2022/08/26 11:36:41;;;;;;;8.35;1.63;;;23.20;99.90;;;;;;4993611;28;20175;-53
2022/08/26 11:39:45;;;;;;;14.20;1.60;;;22.70;99.90;;;;;;4993359;28;20700;-52
2022/08/26 11:42:34;;;;;;;8.63;1.45;;;22.50;99.90;;;;;;4993283;28;20262;-53
2022/08/26 11:45:12;;;;;;;12.15;1.75;;;22.70;99.90;;;;;;4993342;28;20654;-53
2022/08/26 11:47:38;;;;;;;12.70;1.65;;;23.10;99.90;;;;;;4992079;28;20171;-52
2022/08/26 11:50:07;;;;;;;9.00;1.48;;;23.00;99.90;;;;;;4993124;28;20229;-52
2022/08/26 11:52:33;;;;;;;7.18;1.20;;;23.40;99.90;;;;;;4993402;28;20210;-52
2022/08/26 11:55:03;;;;;;;2.72;0.75;;;23.50;99.90;;;;;;4993239;28;20210;-53
2022/08/26 11:57:32;;;;;;;4.47;1.10;;;23.90;99.90;;;;;;4992492;28;20279;-52
2022/08/26 11:59:58;;;;;;;7.50;1.05;;;24.10;99.90;;;;;;4992796;28;20226;-52
2022/08/26 12:02:25;;;;;;;4.95;1.20;;;24.40;99.90;;;;;;4992858;28;20662;-52
2022/08/26 12:04:52;;;;;;;4.28;0.98;;;24.00;99.90;;;;;;4993074;28;20182;-53
2022/08/26 12:07:23;;;;;;;8.02;1.35;;;23.60;99.90;;;;;;4992813;28;20175;-52
2022/08/26 12:09:55;;;;;;;6.53;1.15;;;23.80;99.90;;;;;;4992939;28;20267;-53
2022/08/26 12:12:24;;;;;;;4.40;1.38;;;24.20;99.90;;;;;;4992894;28;20175;-53
2022/08/26 12:15:05;;;;;;;6.32;1.50;;;24.10;99.90;;;;;;4992626;28;20168;-53
2022/08/26 12:17:31;;;;;;;4.60;1.13;;;24.20;99.90;;;;;;4992778;28;20174;-52
2022/08/26 12:19:57;;;;;;;6.47;1.13;;;24.00;99.90;;;;;;4992584;28;20174;-52
2022/08/26 12:22:26;;;;;;;6.70;1.30;;;23.90;99.90;;;;;;4992637;28;20245;-52
2022/08/26 12:24:57;;;;;;;7.30;1.20;;;23.80;99.90;;;;;;4992351;28;20540;-53
2022/08/26 12:27:28;;;;;;;8.20;1.85;;;23.10;99.90;;;;;;4992407;28;20168;-52
2022/08/26 12:30:11;;;;;;;3.80;1.13;;;23.20;99.90;;;;;;4992512;28;20223;-53
2022/08/26 12:32:39;;;;;;;12.88;1.30;;;23.80;99.90;;;;;;4992561;28;20179;-54
2022/08/26 12:35:10;;;;;;;6.70;1.23;;;24.50;99.90;;;;;;4992401;28;20182;-53
2022/08/26 12:37:39;;;;;;;3.30;0.93;;;24.80;99.90;;;;;;4992356;28;20217;-53
2022/08/26 12:40:34;;;;;;;2.97;0.60;;;25.30;99.90;;;;;;4992174;28;20179;-53
2022/08/26 12:43:01;;;;;;;4.25;0.80;;;26.00;99.90;;;;;;4992165;28;20175;-53
2022/08/26 12:45:36;;;;;;;2.53;0.80;;;26.50;99.90;;;;;;4992166;28;20175;-52
2022/08/26 12:48:08;;;;;;;5.95;0.75;;;27.30;99.90;;;;;;4992097;28;20178;-53
2022/08/26 12:50:37;;;;;;;5.63;1.00;;;27.20;99.90;;;;;;4991982;28;20210;-53
2022/08/26 12:53:08;;;;;;;8.20;1.00;;;26.60;99.90;;;;;;4991938;28;20190;-52
2022/08/26 12:55:36;;;;;;;3.88;0.88;;;26.00;99.90;;;;;;4991876;28;20290;-53
2022/08/26 12:58:32;;;;;;;2.33;0.90;;;25.30;99.90;;;;;;4992033;28;20258;-54
2022/08/26 13:01:03;;;;;;;5.05;0.95;;;24.40;99.90;;;;;;4991844;28;20176;-53
2022/08/26 13:03:44;;;;;;;3.17;0.90;;;24.10;99.90;;;;;;4992009;28;20171;-52
2022/08/26 13:06:15;;;;;;;5.30;1.10;;;23.70;99.90;;;;;;4991995;28;20325;-52